createdAt,value
2018-01-15T00:00:10.611Z,28.58
2018-01-15T00:02:39.540Z,28.05
2018-01-15T00:05:07.717Z,26.33
2018-01-15T00:07:35.877Z,24.08
2018-01-15T00:10:04.029Z,28.10
2018-01-15T00:12:32.185Z,22.58
2018-01-15T00:15:00.323Z,25.90
2018-01-15T00:17:28.482Z,24.83
2018-01-15T00:19:56.619Z,30.05
2018-01-15T00:22:33.568Z,22.00
2018-01-15T00:25:01.707Z,24.20
2018-01-15T00:27:29.873Z,19.42
2018-01-15T00:29:58.015Z,24.67
2018-01-15T00:32:26.185Z,19.75
2018-01-15T00:34:54.312Z,25.92
2018-01-15T00:37:22.489Z,23.92
2018-01-15T00:39:50.628Z,26.12
2018-01-15T00:42:18.762Z,23.85
2018-01-15T00:44:46.934Z,26.25
2018-01-15T00:47:15.061Z,30.33
2018-01-15T00:49:43.229Z,23.52
2018-01-15T00:52:11.375Z,25.30
2018-01-15T00:54:39.533Z,23.62
2018-01-15T00:57:07.677Z,27.50
2018-01-15T00:59:35.829Z,24.70
2018-01-15T01:02:03.972Z,27.52
2018-01-15T01:04:32.132Z,19.83
2018-01-15T01:07:00.268Z,22.65
2018-01-15T01:09:28.445Z,25.95
2018-01-15T01:11:56.591Z,23.48
2018-01-15T01:14:24.745Z,27.65
2018-01-15T01:16:52.889Z,28.10
2018-01-15T01:19:21.063Z,24.65
2018-01-15T01:21:49.204Z,25.17
2018-01-15T01:24:17.365Z,24.17
2018-01-15T01:26:45.504Z,21.85
2018-01-15T01:29:13.667Z,24.75
2018-01-15T01:31:41.797Z,19.55
2018-01-15T01:34:09.967Z,22.37
2018-01-15T01:36:38.101Z,22.85
2018-01-15T01:39:06.275Z,28.77
2018-01-15T01:41:34.434Z,21.27
2018-01-15T01:44:03.361Z,19.83
2018-01-15T01:46:31.503Z,28.23
2018-01-15T01:49:00.432Z,31.12
2018-01-15T01:51:28.572Z,21.10
2018-01-15T01:53:57.501Z,21.70
2018-01-15T01:56:25.633Z,20.70
2018-01-15T01:58:54.561Z,26.48
2018-01-15T02:01:22.709Z,19.87
2018-01-15T02:03:50.869Z,24.63
2018-01-15T02:06:19.015Z,23.25
2018-01-15T02:08:47.182Z,24.63
2018-01-15T02:11:15.319Z,24.95
2018-01-15T02:13:43.486Z,25.50
2018-01-15T02:16:11.620Z,23.85
2018-01-15T02:18:39.786Z,29.33
2018-01-15T02:21:07.921Z,25.42
2018-01-15T02:23:36.089Z,24.30
2018-01-15T02:26:04.226Z,29.20
2018-01-15T02:28:32.388Z,21.60
2018-01-15T02:31:01.291Z,27.23
2018-01-15T02:33:29.455Z,23.83
2018-01-15T02:35:58.356Z,20.50
2018-01-15T02:38:26.525Z,25.05
2018-01-15T02:40:55.430Z,30.88
2018-01-15T02:43:23.594Z,25.42
2018-01-15T02:45:52.490Z,23.30
2018-01-15T02:48:20.657Z,24.20
2018-01-15T02:50:49.566Z,23.70
2018-01-15T02:53:17.732Z,14.73
2018-01-15T02:55:45.879Z,24.37
2018-01-15T02:58:14.046Z,23.20
2018-01-15T03:00:42.186Z,21.48
2018-01-15T03:03:10.350Z,22.05
2018-01-15T03:05:38.481Z,26.95
2018-01-15T03:08:06.636Z,26.02
2018-01-15T03:10:34.772Z,22.52
2018-01-15T03:13:02.905Z,25.65
2018-01-15T03:15:31.832Z,23.92
2018-01-15T03:17:59.971Z,22.30
2018-01-15T03:20:28.894Z,23.67
2018-01-15T03:22:57.030Z,22.58
2018-01-15T03:25:25.963Z,26.05
2018-01-15T03:27:54.097Z,21.85
2018-01-15T03:30:23.026Z,20.80
2018-01-15T03:32:51.167Z,22.80
2018-01-15T03:35:19.352Z,29.95
2018-01-15T03:37:47.486Z,23.73
2018-01-15T03:40:15.650Z,24.02
2018-01-15T03:42:43.788Z,24.35
2018-01-15T03:45:11.949Z,25.42
2018-01-15T03:47:40.087Z,21.17
2018-01-15T03:50:08.250Z,25.42
2018-01-15T03:52:36.384Z,27.58
2018-01-15T03:55:04.549Z,28.27
2018-01-15T03:57:32.686Z,31.23
2018-01-15T04:00:00.845Z,20.15
2018-01-15T04:02:28.978Z,26.45
2018-01-15T04:04:57.140Z,25.98
2018-01-15T04:07:25.278Z,24.10
2018-01-15T04:09:53.446Z,23.77
2018-01-15T04:12:22.353Z,30.17
2018-01-15T04:14:50.513Z,26.00
2018-01-15T04:17:19.411Z,29.12
2018-01-15T04:19:47.574Z,26.23
2018-01-15T04:22:16.526Z,23.25
2018-01-15T04:24:44.675Z,26.42
2018-01-15T04:27:12.817Z,27.70
2018-01-15T04:29:40.992Z,23.15
2018-01-15T04:32:09.136Z,27.67
2018-01-15T04:34:37.298Z,24.55
2018-01-15T04:37:05.438Z,26.80
2018-01-15T04:39:33.594Z,27.87
2018-01-15T04:42:01.729Z,23.73
2018-01-15T04:44:29.897Z,28.20
2018-01-15T04:46:58.038Z,28.58
2018-01-15T04:49:26.208Z,26.15
2018-01-15T04:51:54.341Z,28.75
2018-01-15T04:54:23.268Z,28.23
2018-01-15T04:56:51.411Z,26.23
2018-01-15T04:59:20.337Z,27.37
2018-01-15T05:01:48.472Z,27.30
2018-01-15T05:04:17.396Z,20.88
2018-01-15T05:06:45.541Z,29.45
2018-01-15T05:09:14.494Z,24.10
2018-01-15T05:11:42.623Z,27.77
2018-01-15T05:14:10.794Z,24.45
2018-01-15T05:16:38.942Z,15.60
2018-01-15T05:19:07.112Z,30.30
2018-01-15T05:21:35.252Z,26.77
2018-01-15T05:24:03.419Z,28.12
2018-01-15T05:26:31.553Z,27.08
2018-01-15T05:28:59.724Z,22.92
2018-01-15T05:31:28.629Z,26.60
2018-01-15T05:33:56.787Z,31.05
2018-01-15T05:36:24.921Z,26.02
2018-01-15T05:38:53.087Z,33.42
2018-01-15T05:41:21.224Z,27.58
2018-01-15T05:43:49.384Z,23.67
2018-01-15T05:46:18.283Z,26.80
2018-01-15T05:48:46.421Z,25.12
2018-01-15T05:51:14.586Z,25.37
2018-01-15T05:53:42.709Z,28.90
2018-01-15T05:56:10.864Z,29.95
2018-01-15T05:58:39.002Z,22.62
2018-01-15T06:01:07.164Z,19.55
2018-01-15T06:03:35.290Z,23.70
2018-01-15T06:06:03.455Z,26.12
2018-01-15T06:08:31.581Z,18.10
2018-01-15T06:10:59.741Z,22.90
2018-01-15T06:13:27.880Z,26.27
2018-01-15T06:15:56.050Z,22.98
2018-01-15T06:18:24.182Z,25.20
2018-01-15T06:20:52.358Z,27.27
2018-01-15T06:23:20.483Z,25.00
2018-01-15T06:25:48.645Z,16.67
2018-01-15T06:28:16.781Z,29.77
2018-01-15T06:30:44.930Z,22.85
2018-01-15T06:33:13.065Z,24.30
2018-01-15T06:35:41.225Z,27.27
2018-01-15T06:38:09.403Z,24.23
2018-01-15T06:40:38.341Z,23.27
2018-01-15T06:43:06.468Z,28.42
2018-01-15T06:45:35.384Z,21.05
2018-01-15T06:48:03.525Z,21.77
2018-01-15T06:50:32.455Z,24.58
2018-01-15T06:53:00.589Z,25.83
2018-01-15T06:55:29.517Z,22.40
2018-01-15T06:57:57.662Z,28.75
2018-01-15T07:00:26.596Z,30.10
2018-01-15T07:02:54.734Z,31.67
2018-01-15T07:05:22.921Z,25.65
2018-01-15T07:07:51.061Z,25.65
2018-01-15T07:10:19.239Z,29.55
2018-01-15T07:12:48.139Z,31.52
2018-01-15T07:15:16.301Z,28.92
2018-01-15T07:20:18.835Z,32.97
2018-01-15T07:22:46.983Z,27.90
2018-01-15T07:25:15.909Z,30.33
2018-01-15T07:27:44.115Z,31.83
2018-01-15T07:30:12.422Z,30.48
2018-01-15T07:32:41.335Z,33.40
2018-01-15T07:35:09.549Z,26.08
2018-01-15T07:37:37.721Z,31.50
2018-01-15T07:40:06.098Z,27.30
2018-01-15T07:42:34.231Z,29.50
2018-01-15T07:45:02.388Z,31.27
2018-01-15T07:47:31.293Z,25.23
2018-01-15T07:49:59.453Z,23.38
2018-01-15T07:52:27.590Z,22.98
2018-01-15T07:54:55.761Z,20.95
2018-01-15T07:57:23.893Z,22.40
2018-01-15T07:59:53.927Z,18.65
2018-01-15T08:02:22.061Z,26.60
2018-01-15T08:04:50.221Z,20.75
2018-01-15T08:07:18.357Z,20.27
2018-01-15T08:09:46.524Z,17.52
2018-01-15T08:12:14.661Z,18.87
2018-01-15T08:14:42.822Z,17.65
2018-01-15T08:17:10.963Z,19.08
2018-01-15T08:19:39.096Z,22.92
2018-01-15T08:22:07.254Z,23.92
2018-01-15T08:24:35.381Z,18.95
2018-01-15T08:27:03.672Z,16.95
2018-01-15T08:29:31.805Z,25.08
2018-01-15T08:32:00.008Z,18.20
2018-01-15T08:34:28.131Z,18.80
2018-01-15T08:36:56.309Z,15.43
2018-01-15T08:39:24.440Z,19.23
2018-01-15T08:41:52.601Z,14.52
2018-01-15T08:44:20.724Z,19.25
2018-01-15T08:46:48.886Z,15.02
2018-01-15T08:49:17.065Z,24.40
2018-01-15T08:51:45.224Z,17.20
2018-01-15T08:54:14.118Z,23.83
2018-01-15T08:56:42.268Z,19.12
2018-01-15T08:59:11.165Z,17.17
2018-01-15T09:01:39.319Z,24.17
2018-01-15T09:04:07.458Z,23.65
2018-01-15T09:06:35.613Z,17.75
2018-01-15T09:09:03.742Z,19.85
2018-01-15T09:11:31.909Z,20.60
2018-01-15T09:14:00.046Z,20.45
2018-01-15T09:16:28.193Z,17.92
2018-01-15T09:18:56.337Z,20.30
2018-01-15T09:21:24.493Z,22.70
2018-01-15T09:23:52.630Z,23.58
2018-01-15T09:26:20.778Z,25.85
2018-01-15T09:28:48.908Z,19.50
2018-01-15T09:31:17.061Z,21.33
2018-01-15T09:33:45.458Z,21.52
2018-01-15T09:36:13.614Z,27.65
2018-01-15T09:38:41.749Z,17.08
2018-01-15T09:41:09.906Z,15.50
2018-01-15T09:43:38.034Z,24.50
2018-01-15T09:46:06.237Z,21.12
2018-01-15T09:48:34.348Z,20.08
2018-01-15T09:51:02.517Z,18.87
2018-01-15T09:53:30.650Z,21.08
2018-01-15T09:55:58.810Z,20.33
2018-01-15T09:58:26.945Z,20.85
2018-01-15T10:00:55.131Z,23.58
2018-01-15T10:03:23.257Z,22.95
2018-01-15T10:05:51.412Z,20.85
2018-01-15T10:08:19.541Z,19.40
2018-01-15T10:10:47.702Z,16.65
2018-01-15T10:13:15.843Z,18.60
2018-01-15T10:15:44.781Z,19.95
2018-01-15T10:18:12.905Z,19.12
2018-01-15T10:20:41.066Z,22.45
2018-01-15T10:23:09.206Z,16.77
2018-01-15T10:25:37.356Z,18.90
2018-01-15T10:28:05.542Z,17.30
2018-01-15T10:30:33.702Z,16.45
2018-01-15T10:33:01.835Z,17.48
2018-01-15T10:35:29.998Z,13.85
2018-01-15T10:37:58.120Z,15.30
2018-01-15T10:40:27.129Z,16.50
2018-01-15T10:42:55.265Z,20.90
2018-01-15T10:45:23.389Z,16.77
2018-01-15T10:47:51.549Z,15.55
2018-01-15T10:50:19.686Z,15.43
2018-01-15T10:52:47.840Z,23.30
2018-01-15T10:55:15.992Z,17.70
2018-01-15T10:57:44.158Z,17.25
2018-01-15T11:00:12.285Z,20.45
2018-01-15T11:02:41.206Z,17.77
2018-01-15T11:05:09.337Z,17.83
2018-01-15T11:07:37.488Z,14.20
2018-01-15T11:10:05.621Z,12.63
2018-01-15T11:12:33.782Z,13.32
2018-01-15T11:15:01.923Z,17.37
2018-01-15T11:17:30.094Z,16.77
2018-01-15T11:19:58.225Z,12.40
2018-01-15T11:22:26.380Z,15.50
2018-01-15T11:24:54.517Z,20.65
2018-01-15T11:27:22.674Z,19.48
2018-01-15T11:29:50.854Z,17.23
2018-01-15T11:32:18.994Z,16.85
2018-01-15T11:34:47.121Z,18.20
2018-01-15T11:37:16.044Z,20.30
2018-01-15T11:39:44.177Z,17.42
2018-01-15T11:42:12.337Z,15.60
2018-01-15T11:44:40.468Z,14.50
2018-01-15T11:47:08.625Z,20.80
2018-01-15T11:49:36.752Z,13.93
2018-01-15T11:52:04.917Z,17.25
2018-01-15T11:54:33.050Z,16.23
2018-01-15T11:57:01.209Z,14.07
2018-01-15T11:59:29.350Z,14.60
2018-01-15T12:01:57.501Z,14.65
2018-01-15T12:04:25.634Z,15.38
2018-01-15T12:06:53.792Z,18.42
2018-01-15T12:09:21.929Z,17.67
2018-01-15T12:11:50.097Z,14.73
2018-01-15T12:14:18.239Z,12.88
2018-01-15T12:16:46.397Z,16.30
2018-01-15T12:19:14.533Z,10.65
2018-01-15T12:21:42.694Z,18.27
2018-01-15T12:24:10.824Z,13.23
2018-01-15T12:26:38.989Z,15.48
2018-01-15T12:29:07.125Z,11.65
2018-01-15T12:31:35.283Z,15.50
2018-01-15T12:34:03.415Z,13.73
2018-01-15T12:36:31.573Z,12.80
2018-01-15T12:38:59.705Z,18.12
2018-01-15T12:41:27.868Z,11.73
2018-01-15T12:43:56.001Z,12.63
2018-01-15T12:46:24.161Z,14.07
2018-01-15T12:48:52.310Z,15.30
2018-01-15T12:51:20.469Z,14.07
2018-01-15T12:53:48.602Z,13.43
2018-01-15T12:56:16.732Z,13.95
2018-01-15T12:58:44.913Z,13.23
2018-01-15T13:01:13.041Z,17.25
2018-01-15T13:03:41.200Z,15.05
2018-01-15T13:06:09.905Z,13.90
2018-01-15T13:11:43.645Z,15.75
2018-01-15T13:14:11.772Z,15.38
2018-01-15T13:16:39.905Z,13.57
2018-01-15T13:19:08.064Z,12.48
2018-01-15T13:21:36.234Z,12.65
2018-01-15T13:24:04.386Z,9.27
2018-01-15T13:26:32.512Z,16.00
2018-01-15T13:29:01.434Z,11.82
2018-01-15T13:31:29.564Z,15.40
2018-01-15T13:33:57.722Z,13.77
2018-01-15T13:36:25.852Z,14.85
2018-01-15T13:38:54.036Z,14.45
2018-01-15T13:41:22.168Z,12.00
2018-01-15T13:43:50.379Z,14.98
2018-01-15T13:46:18.518Z,12.70
2018-01-15T13:48:46.692Z,15.40
2018-01-15T13:51:14.824Z,11.32
2018-01-15T13:53:43.008Z,13.60
2018-01-15T13:56:12.265Z,13.30
2018-01-15T13:58:40.428Z,12.90
2018-01-15T14:01:08.556Z,10.73
2018-01-15T14:03:36.732Z,15.63
2018-01-15T14:06:04.867Z,13.45
2018-01-15T14:08:33.043Z,13.13
2018-01-15T14:11:01.169Z,13.15
2018-01-15T14:13:29.714Z,15.75
2018-01-15T14:15:57.848Z,12.77
2018-01-15T14:18:26.019Z,12.32
2018-01-15T14:20:54.948Z,13.35
2018-01-15T14:23:23.119Z,13.25
2018-01-15T14:25:51.245Z,10.23
2018-01-15T14:28:19.401Z,15.63
2018-01-15T14:30:47.538Z,17.30
2018-01-15T14:33:15.702Z,13.20
2018-01-15T14:35:43.837Z,14.45
2018-01-15T14:38:11.994Z,13.38
2018-01-15T14:40:40.130Z,12.82
2018-01-15T14:43:08.285Z,14.35
2018-01-15T14:45:36.422Z,12.48
2018-01-15T14:48:04.577Z,14.70
2018-01-15T14:50:32.722Z,14.80
2018-01-15T14:53:00.913Z,15.13
2018-01-15T14:55:29.054Z,15.50
2018-01-15T14:57:57.217Z,11.05
2018-01-15T15:00:25.357Z,13.32
2018-01-15T15:02:53.518Z,14.77
2018-01-15T15:05:21.666Z,9.98
2018-01-15T15:07:50.034Z,11.88
2018-01-15T15:10:19.617Z,13.60
2018-01-15T15:12:47.817Z,16.83
2018-01-15T15:15:15.948Z,10.75
2018-01-15T15:17:44.135Z,13.52
2018-01-15T15:20:12.285Z,14.98
2018-01-15T15:22:40.445Z,13.90
2018-01-15T15:25:08.588Z,14.18
2018-01-15T15:27:36.796Z,14.20
2018-01-15T15:30:04.934Z,14.55
2018-01-15T15:32:33.157Z,13.50
2018-01-15T15:35:01.290Z,12.80
2018-01-15T15:37:29.721Z,12.82
2018-01-15T15:39:58.615Z,12.25
2018-01-15T15:42:26.828Z,15.15
2018-01-15T15:44:55.009Z,12.65
2018-01-15T15:47:23.151Z,11.63
2018-01-15T15:49:51.358Z,17.33
2018-01-15T15:52:19.523Z,13.48
2018-01-15T15:54:47.674Z,14.73
2018-01-15T15:57:15.809Z,12.05
2018-01-15T15:59:44.771Z,14.68
2018-01-15T16:02:12.931Z,13.55
2018-01-15T16:04:41.094Z,13.80
2018-01-15T16:07:09.250Z,13.55
2018-01-15T16:09:37.429Z,12.23
2018-01-15T16:12:05.587Z,14.52
2018-01-15T16:14:33.758Z,12.05
2018-01-15T16:17:01.890Z,12.13
2018-01-15T16:19:30.058Z,15.48
2018-01-15T16:22:09.911Z,12.30
2018-01-15T16:24:38.061Z,13.45
2018-01-15T16:27:06.194Z,12.82
2018-01-15T16:29:35.115Z,14.05
2018-01-15T16:32:03.240Z,10.07
2018-01-15T16:34:32.161Z,10.77
2018-01-15T16:37:00.289Z,15.32
2018-01-15T16:39:28.497Z,10.90
2018-01-15T16:41:56.626Z,12.50
2018-01-15T16:44:24.798Z,11.07
2018-01-15T16:46:52.924Z,15.15
2018-01-15T16:49:21.110Z,14.00
2018-01-15T16:51:49.266Z,12.55
2018-01-15T16:54:17.449Z,9.95
2018-01-15T16:56:45.618Z,10.65
2018-01-15T16:59:13.796Z,10.25
2018-01-15T17:01:41.933Z,15.60
2018-01-15T17:04:10.092Z,12.82
2018-01-15T17:06:38.221Z,10.48
2018-01-15T17:09:06.371Z,11.25
2018-01-15T17:11:34.492Z,11.27
2018-01-15T17:14:02.662Z,15.27
2018-01-15T17:16:30.793Z,12.40
2018-01-15T17:18:58.940Z,15.95
2018-01-15T17:21:27.070Z,9.43
2018-01-15T17:23:55.261Z,11.30
2018-01-15T17:26:23.381Z,9.15
2018-01-15T17:28:51.529Z,9.32
2018-01-15T17:31:19.743Z,13.02
2018-01-15T17:33:47.918Z,13.18
2018-01-15T17:36:16.072Z,16.02
2018-01-15T17:38:44.651Z,15.35
2018-01-15T17:41:13.078Z,11.98
2018-01-15T17:43:41.422Z,10.10
2018-01-15T17:46:10.199Z,13.93
2018-01-15T17:48:38.400Z,12.70
2018-01-15T17:51:06.524Z,10.55
2018-01-15T17:53:34.692Z,14.15
2018-01-15T17:56:03.146Z,12.65
2018-01-15T17:58:31.308Z,9.98
2018-01-15T18:00:59.458Z,10.32
2018-01-15T18:03:27.695Z,10.98
2018-01-15T18:05:56.081Z,10.48
2018-01-15T18:08:24.610Z,11.80
2018-01-15T18:10:53.033Z,15.23
2018-01-15T18:13:21.256Z,10.52
2018-01-15T18:15:49.737Z,10.43
2018-01-15T18:18:17.877Z,14.30
2018-01-15T18:20:46.082Z,15.02
2018-01-15T18:23:14.347Z,13.77
2018-01-15T18:25:42.604Z,12.63
2018-01-15T18:28:12.651Z,14.77
2018-01-15T18:30:41.429Z,10.70
2018-01-15T18:33:10.220Z,12.43
2018-01-15T18:35:39.204Z,7.85
2018-01-15T18:38:07.746Z,11.05
2018-01-15T18:40:36.551Z,10.13
2018-01-15T18:43:04.877Z,11.80
2018-01-15T18:45:33.889Z,12.37
2018-01-15T18:48:02.921Z,14.13
2018-01-15T18:50:32.119Z,15.20
2018-01-15T18:53:01.917Z,10.43
2018-01-15T18:55:30.428Z,10.93
2018-01-15T18:57:58.720Z,15.98
2018-01-15T19:00:26.920Z,11.40
2018-01-15T19:02:55.196Z,10.40
2018-01-15T19:05:23.432Z,9.85
2018-01-15T19:07:51.706Z,12.23
2018-01-15T19:10:20.729Z,11.40
2018-01-15T19:12:48.910Z,14.87
2018-01-15T19:15:17.242Z,18.42
2018-01-15T19:17:45.425Z,10.90
2018-01-15T19:20:13.611Z,11.23
2018-01-15T19:22:41.761Z,11.45
2018-01-15T19:25:10.021Z,9.98
2018-01-15T19:27:38.537Z,9.18
2018-01-15T19:30:07.287Z,14.87
2018-01-15T19:32:36.174Z,10.65
2018-01-15T19:35:10.573Z,12.57
2018-01-15T19:37:56.529Z,8.90
2018-01-15T19:40:25.551Z,10.43
2018-01-15T19:42:54.562Z,8.82
2018-01-15T19:45:29.103Z,11.85
2018-01-15T19:48:04.182Z,10.77
2018-01-15T19:50:38.097Z,13.52
2018-01-15T19:53:11.970Z,10.65
2018-01-15T19:55:47.484Z,11.60
2018-01-15T19:58:21.504Z,11.60
2018-01-15T20:03:58.364Z,11.27
2018-01-15T20:06:45.373Z,10.60
2018-01-15T20:09:28.392Z,12.45
2018-01-15T20:11:56.691Z,13.25
2018-01-15T20:14:24.833Z,10.75
2018-01-15T20:16:53.013Z,11.05
2018-01-15T20:19:21.255Z,12.07
2018-01-15T20:21:49.513Z,10.40
2018-01-15T20:24:17.649Z,13.32
2018-01-15T20:26:45.821Z,12.70
2018-01-15T20:29:13.959Z,13.15
2018-01-15T20:31:42.122Z,11.98
2018-01-15T20:34:10.254Z,11.85
2018-01-15T20:36:38.415Z,14.30
2018-01-15T20:39:06.573Z,10.50
2018-01-15T20:41:34.745Z,12.23
2018-01-15T20:44:02.926Z,10.75
2018-01-15T20:46:31.088Z,11.18
2018-01-15T20:48:59.226Z,9.55
2018-01-15T20:51:27.392Z,12.37
2018-01-15T20:53:55.642Z,11.27
2018-01-15T20:56:23.821Z,13.73
2018-01-15T20:58:51.952Z,11.82
2018-01-15T21:01:20.141Z,12.05
2018-01-15T21:03:48.367Z,12.52
2018-01-15T21:06:16.569Z,11.70
2018-01-15T21:08:44.814Z,14.60
2018-01-15T21:11:13.000Z,15.20
2018-01-15T21:13:41.147Z,12.75
2018-01-15T21:16:09.346Z,14.68
2018-01-15T21:18:37.477Z,9.60
2018-01-15T21:21:05.662Z,16.90
2018-01-15T21:23:33.814Z,17.00
2018-01-15T21:26:01.980Z,15.10
2018-01-15T21:28:30.109Z,9.90
2018-01-15T21:30:58.391Z,13.45
2018-01-15T21:33:26.582Z,11.23
2018-01-15T21:35:54.745Z,15.88
2018-01-15T21:38:23.734Z,12.68
2018-01-15T21:40:52.679Z,12.63
2018-01-15T21:43:20.824Z,16.23
2018-01-15T21:45:49.007Z,13.55
2018-01-15T21:48:17.158Z,7.93
2018-01-15T21:50:45.312Z,12.18
2018-01-15T21:53:13.441Z,12.85
2018-01-15T21:55:41.681Z,13.38
2018-01-15T21:58:09.808Z,11.73
2018-01-15T22:00:37.966Z,14.75
2018-01-15T22:03:06.093Z,11.35
2018-01-15T22:05:35.019Z,14.55
2018-01-15T22:08:03.154Z,15.70
2018-01-15T22:10:31.296Z,13.65
2018-01-15T22:12:59.463Z,13.38
2018-01-15T22:15:27.597Z,13.98
2018-01-15T22:17:55.760Z,14.05
2018-01-15T22:20:23.894Z,14.05
2018-01-15T22:22:52.050Z,14.75
2018-01-15T22:25:20.177Z,14.00
2018-01-15T22:27:48.340Z,13.20
2018-01-15T22:30:16.465Z,15.85
2018-01-15T22:32:44.617Z,16.83
2018-01-15T22:35:12.754Z,13.70
2018-01-15T22:37:41.681Z,15.70
2018-01-15T22:40:09.812Z,11.07
2018-01-15T22:42:38.821Z,14.68
2018-01-15T22:45:07.716Z,17.80
2018-01-15T22:47:35.876Z,15.10
2018-01-15T22:50:04.775Z,14.40
2018-01-15T22:52:32.924Z,12.95
2018-01-15T22:55:01.058Z,12.93
2018-01-15T22:57:29.209Z,11.82
2018-01-15T22:59:57.335Z,16.65
2018-01-15T23:02:25.498Z,16.15
2018-01-15T23:04:53.634Z,13.52
2018-01-15T23:07:21.790Z,15.30
2018-01-15T23:09:49.928Z,15.43
2018-01-15T23:12:18.139Z,14.73
2018-01-15T23:14:46.250Z,18.55
2018-01-15T23:17:14.404Z,17.15
2018-01-15T23:19:42.529Z,17.52
2018-01-15T23:22:10.697Z,15.48
2018-01-15T23:24:38.821Z,20.48
2018-01-15T23:27:06.977Z,14.85
2018-01-15T23:29:35.108Z,15.98
2018-01-15T23:32:03.270Z,16.17
2018-01-15T23:34:31.408Z,22.83
2018-01-15T23:36:59.568Z,15.38
2018-01-15T23:39:27.710Z,14.77
2018-01-15T23:41:55.865Z,12.68
2018-01-15T23:44:23.996Z,18.62
2018-01-15T23:46:52.154Z,16.00
2018-01-15T23:49:20.296Z,16.75
2018-01-15T23:51:48.452Z,17.60
2018-01-15T23:54:28.303Z,18.70
2018-01-15T23:56:56.449Z,14.25
2018-01-15T23:59:24.576Z,19.77
